Time;durP1;ratioP1;P1;durP2;ratioP2;P2;SDS_P1;SDS_P2;PMS_P1;PMS_P2;Temp;Humidity;BMP_temperature;BMP_pressure;BME280_temperature;BME280_humidity;BME280_pressure;Samples;Min_cycle;Max_cycle;Signal;HPM_P1;HPM_P2
2023/08/13 00:02:09;;;;;;;14.70;3.00;;;20.10;99.90;;;;;;4953254;28;20035;-88
2023/08/13 00:04:35;;;;;;;19.20;4.20;;;;;;;;;;4953406;28;20380;-88
2023/08/13 00:07:00;;;;;;;14.82;3.03;;;20.10;99.90;;;;;;4952985;28;20418;-89
2023/08/13 00:09:27;;;;;;;18.52;3.33;;;;;;;;;;4952138;28;20518;-90
2023/08/13 00:11:56;;;;;;;19.88;3.20;;;;;;;;;;4948964;28;20043;-89
2023/08/13 00:14:22;;;;;;;22.08;2.90;;;;;;;;;;4944275;28;20027;-89
2023/08/13 00:16:48;;;;;;;20.08;3.17;;;;;;;;;;4957868;28;20483;-89
2023/08/13 00:19:15;;;;;;;18.85;2.92;;;;;;;;;;4953392;28;20023;-89
2023/08/13 00:21:41;;;;;;;16.45;2.80;;;;;;;;;;4952374;28;20023;-89
2023/08/13 00:24:07;;;;;;;13.82;3.13;;;;;;;;;;4952633;28;20054;-89
2023/08/13 00:26:32;;;;;;;17.45;3.35;;;20.10;99.90;;;;;;4951150;29;20126;-88
2023/08/13 00:28:58;;;;;;;19.83;2.97;;;;;;;;;;4951366;28;20110;-88
2023/08/13 00:31:24;;;;;;;13.55;2.60;;;;;;;;;;4952445;28;20558;-88
2023/08/13 00:33:51;;;;;;;17.52;3.33;;;;;;;;;;4950249;29;20423;-89
2023/08/13 00:36:17;;;;;;;15.45;3.10;;;;;;;;;;4953106;28;20023;-90
2023/08/13 00:38:43;;;;;;;18.30;3.05;;;;;;;;;;4952419;28;20146;-89
2023/08/13 00:41:09;;;;;;;18.20;3.53;;;;;;;;;;4951822;28;20035;-89
2023/08/13 00:43:38;;;;;;;13.70;2.75;;;20.20;99.90;;;;;;4952421;28;20542;-89
2023/08/13 00:46:05;;;;;;;16.17;3.55;;;;;;;;;;4952222;28;20038;-89
2023/08/13 00:48:31;;;;;;;14.77;3.28;;;20.20;99.90;;;;;;4950254;29;20030;-89
2023/08/13 00:50:57;;;;;;;15.75;2.88;;;;;;;;;;4950290;28;20177;-89
2023/08/13 00:53:24;;;;;;;21.05;3.40;;;20.10;99.90;;;;;;4952158;28;20039;-88
2023/08/13 00:55:50;;;;;;;14.25;3.47;;;;;;;;;;4953237;28;20024;-90
2023/08/13 00:58:18;;;;;;;22.10;3.70;;;20.10;99.90;;;;;;4938973;29;20100;-90
2023/08/13 01:00:44;;;;;;;18.10;3.40;;;20.10;99.90;;;;;;4953010;29;20510;-91
2023/08/13 01:03:11;;;;;;;16.50;3.22;;;;;;;;;;4953758;28;20865;-90
2023/08/13 01:06:19;;;;;;;22.00;4.40;;;19.90;99.90;;;;;;4952352;28;20027;-91
2023/08/13 01:09:05;;;;;;;19.33;3.15;;;20.00;99.90;;;;;;4911641;29;20544;-90
2023/08/13 01:11:52;;;;;;;17.98;3.15;;;20.00;99.90;;;;;;4933018;29;20051;-88
2023/08/13 01:14:23;;;;;;;;;;;20.00;99.90;;;;;;4952078;28;20031;-90
2023/08/13 01:16:51;;;;;;;20.33;2.95;;;19.90;99.90;;;;;;4951833;29;19907;-90
2023/08/13 01:19:18;;;;;;;18.83;3.25;;;;;;;;;;4951764;28;20027;-90
2023/08/13 01:21:44;;;;;;;15.90;2.85;;;;;;;;;;4950016;28;20031;-90
2023/08/13 01:24:09;;;;;;;18.52;3.35;;;17.20;99.90;;;;;;4950934;28;20083;-90
2023/08/13 01:27:06;;;;;;;20.70;3.95;;;19.80;99.90;;;;;;4966392;28;20511;-89
2023/08/13 01:29:43;;;;;;;23.35;3.58;;;19.90;99.90;;;;;;4951556;29;20027;-89
2023/08/13 01:32:12;;;;;;;13.60;2.88;;;19.90;99.90;;;;;;4951001;28;20077;-89
2023/08/13 01:34:38;;;;;;;21.75;4.00;;;;;;;;;;4950739;28;20119;-90
2023/08/13 01:37:05;;;;;;;20.23;3.20;;;19.90;99.90;;;;;;4950442;28;20031;-91
2023/08/13 01:39:31;;;;;;;21.45;3.08;;;19.70;99.90;;;;;;4949732;29;20404;-89
2023/08/13 01:41:57;;;;;;;15.80;3.15;;;;;;;;;;4949421;28;20058;-89
2023/08/13 01:44:23;;;;;;;18.23;3.47;;;19.80;99.90;;;;;;4950639;28;20035;-89
2023/08/13 01:46:49;;;;;;;13.93;2.90;;;19.90;99.90;;;;;;4950011;29;20042;-91
2023/08/13 01:49:15;;;;;;;15.85;4.28;;;19.90;99.90;;;;;;4942907;29;20527;-90
2023/08/13 01:51:40;;;;;;;15.13;3.20;;;19.80;99.90;;;;;;4949674;29;20067;-89
2023/08/13 01:54:06;;;;;;;16.02;4.00;;;19.80;99.90;;;;;;4950412;29;20032;-88
2023/08/13 01:56:32;;;;;;;16.77;3.20;;;19.80;99.90;;;;;;4951044;28;20027;-90
2023/08/13 01:58:58;;;;;;;15.73;3.55;;;19.80;99.90;;;;;;4949169;29;20031;-88
2023/08/13 02:01:23;;;;;;;19.42;3.85;;;19.70;99.90;;;;;;4951090;28;20031;-91
2023/08/13 02:03:49;;;;;;;16.23;2.80;;;19.80;99.90;;;;;;4951837;28;20051;-93
2023/08/13 02:06:15;;;;;;;16.85;3.28;;;19.70;99.90;;;;;;4950918;28;20510;-93
2023/08/13 02:08:41;;;;;;;17.08;2.78;;;19.80;99.90;;;;;;4950645;29;20035;-93
2023/08/13 02:11:06;;;;;;;20.20;3.63;;;19.70;99.90;;;;;;4951116;28;20043;-92
2023/08/13 02:13:32;;;;;;;16.40;3.88;;;19.60;99.90;;;;;;4951341;29;20027;-93
2023/08/13 02:16:04;;;;;;;16.38;3.17;;;19.70;99.90;;;;;;4950838;29;20042;-92
2023/08/13 02:18:30;;;;;;;15.40;3.10;;;19.60;99.90;;;;;;4950679;28;20018;-93
2023/08/13 02:20:56;;;;;;;12.77;3.20;;;19.50;99.90;;;;;;4951135;28;20110;-93
2023/08/13 02:23:21;;;;;;;17.08;3.38;;;19.40;99.90;;;;;;4951776;28;20110;-92
2023/08/13 02:25:47;;;;;;;19.58;3.42;;;19.40;99.90;;;;;;4954050;28;20023;-93
2023/08/13 02:28:13;;;;;;;10.57;2.55;;;19.40;99.90;;;;;;4954800;29;20032;-94
2023/08/13 02:30:39;;;;;;;18.73;2.95;;;;;;;;;;4954695;28;20372;-93
2023/08/13 02:33:05;;;;;;;13.65;3.05;;;;;;;;;;4953575;28;20062;-92
2023/08/13 02:35:31;;;;;;;14.05;3.20;;;;;;;;;;4954669;28;20027;-93
2023/08/13 02:37:57;;;;;;;21.42;2.70;;;19.30;99.90;;;;;;4954584;28;20518;-93
2023/08/13 02:40:22;;;;;;;14.68;2.83;;;19.30;99.90;;;;;;4955296;28;20059;-93
2023/08/13 02:42:48;;;;;;;11.88;2.83;;;19.30;99.90;;;;;;4954875;28;20020;-93
2023/08/13 02:45:14;;;;;;;12.55;3.00;;;19.30;99.90;;;;;;4953300;28;20028;-93
2023/08/13 02:47:39;;;;;;;15.07;3.60;;;19.30;99.90;;;;;;4954366;29;20042;-92
2023/08/13 02:50:06;;;;;;;14.38;2.97;;;19.30;99.90;;;;;;4954087;29;20035;-93
2023/08/13 02:52:32;;;;;;;21.75;3.28;;;19.30;99.90;;;;;;4955777;28;20039;-92
2023/08/13 02:54:57;;;;;;;21.42;3.15;;;19.30;99.90;;;;;;4956975;29;20038;-93
2023/08/13 02:57:23;;;;;;;8.45;2.65;;;19.30;99.90;;;;;;4956423;28;20035;-92
2023/08/13 02:59:49;;;;;;;15.73;2.85;;;19.00;99.90;;;;;;4952775;28;20055;-92
2023/08/13 03:02:16;;;;;;;14.02;2.97;;;;;;;;;;4954200;29;20015;-93
2023/08/13 03:04:42;;;;;;;15.38;3.50;;;;;;;;;;4954049;29;20035;-94
2023/08/13 03:07:08;;;;;;;10.30;3.00;;;19.20;99.90;;;;;;4954093;28;20028;-93
2023/08/13 03:09:34;;;;;;;12.18;2.75;;;19.20;99.90;;;;;;4954104;28;20392;-92
2023/08/13 03:12:00;;;;;;;13.65;2.72;;;;;;;;;;4953404;28;20039;-92
2023/08/13 03:14:26;;;;;;;13.93;3.20;;;;;;;;;;4954655;28;20031;-93
2023/08/13 03:16:51;;;;;;;18.08;3.20;;;19.10;99.90;;;;;;4954216;29;20038;-91
2023/08/13 03:19:17;;;;;;;12.75;3.22;;;;;;;;;;4953131;29;20031;-93
2023/08/13 03:21:43;;;;;;;17.15;3.40;;;19.10;99.90;;;;;;4953813;29;20159;-93
2023/08/13 03:24:09;;;;;;;12.80;3.17;;;;;;;;;;4948783;29;21506;-92
2023/08/13 03:26:34;;;;;;;10.85;2.95;;;19.20;99.90;;;;;;4952302;28;20035;-92
2023/08/13 03:29:00;;;;;;;10.27;2.95;;;;;;;;;;4952565;29;20055;-92
2023/08/13 03:31:26;;;;;;;20.30;3.40;;;19.20;99.90;;;;;;4954170;28;20057;-95
2023/08/13 03:33:52;;;;;;;21.45;4.03;;;;;;;;;;4953303;29;20082;-93
2023/08/13 03:36:18;;;;;;;19.80;2.80;;;;;;;;;;4953303;28;20481;-94
2023/08/13 03:38:43;;;;;;;16.80;3.13;;;24.40;99.90;;;;;;4953479;29;20035;-93
2023/08/13 03:41:09;;;;;;;18.63;3.58;;;;;;;;;;4952510;29;20035;-89
2023/08/13 03:43:35;;;;;;;11.30;3.25;;;19.30;99.90;;;;;;4952908;28;20090;-88
2023/08/13 03:46:04;;;;;;;17.80;3.33;;;19.10;99.90;;;;;;4952419;28;20043;-90
2023/08/13 03:48:30;;;;;;;16.80;3.40;;;;;;;;;;4950899;29;20019;-89
2023/08/13 03:50:56;;;;;;;21.10;3.55;;;;;;;;;;4953635;28;20031;-88
2023/08/13 03:53:24;;;;;;;19.52;3.53;;;19.20;99.90;;;;;;4952337;29;20089;-88
2023/08/13 03:55:50;;;;;;;17.25;3.88;;;19.20;99.90;;;;;;4952564;28;20411;-89
2023/08/13 03:58:16;;;;;;;16.02;3.35;;;19.20;99.90;;;;;;4951033;28;20034;-88
2023/08/13 04:00:42;;;;;;;16.88;3.45;;;19.20;99.90;;;;;;4950898;29;20094;-91
2023/08/13 04:03:09;;;;;;;22.35;3.78;;;;;;;;;;4951084;29;20054;-89
2023/08/13 04:05:35;;;;;;;18.85;2.88;;;;;;;;;;4951013;29;20039;-89
2023/08/13 04:08:01;;;;;;;15.52;3.25;;;;;;;;;;4952290;28;20027;-88
2023/08/13 04:10:27;;;;;;;18.90;3.08;;;19.30;99.90;;;;;;4952528;28;20028;-88
2023/08/13 04:12:53;;;;;;;18.33;3.80;;;19.20;99.90;;;;;;4951923;28;20115;-88
2023/08/13 04:15:19;;;;;;;15.65;3.25;;;19.30;99.90;;;;;;4951887;28;20078;-89
2023/08/13 04:17:44;;;;;;;16.75;3.53;;;19.30;99.90;;;;;;4950847;29;20035;-88
2023/08/13 04:20:11;;;;;;;16.75;3.05;;;19.30;99.90;;;;;;4950850;29;20468;-88
2023/08/13 04:22:37;;;;;;;18.15;2.72;;;;;;;;;;4951823;29;20035;-88
2023/08/13 04:25:03;;;;;;;20.55;3.95;;;19.40;99.90;;;;;;4950653;28;20051;-88
2023/08/13 04:27:28;;;;;;;16.13;3.88;;;19.30;99.90;;;;;;4951420;29;20062;-89
2023/08/13 04:29:54;;;;;;;22.00;3.72;;;19.30;99.90;;;;;;4951929;29;20368;-88
2023/08/13 04:32:19;;;;;;;15.60;3.50;;;19.20;99.90;;;;;;4950522;28;20032;-88
2023/08/13 04:34:45;;;;;;;14.00;3.05;;;19.30;99.90;;;;;;4951584;29;20026;-88
2023/08/13 04:37:11;;;;;;;22.92;3.80;;;19.30;99.90;;;;;;4950083;29;20471;-88
2023/08/13 04:39:36;;;;;;;19.73;2.97;;;19.30;99.90;;;;;;4951509;28;20106;-90
2023/08/13 04:42:02;;;;;;;17.35;3.33;;;19.20;99.90;;;;;;4950889;29;20042;-88
2023/08/13 04:44:28;;;;;;;15.77;3.15;;;;;;;;;;4952227;29;20054;-89
2023/08/13 04:46:54;;;;;;;15.68;3.20;;;;;;;;;;4951742;28;20102;-88
2023/08/13 04:49:20;;;;;;;22.05;3.75;;;19.10;99.90;;;;;;4950543;28;20023;-88
2023/08/13 04:51:45;;;;;;;19.75;3.95;;;19.20;99.90;;;;;;4951321;29;20400;-88
2023/08/13 04:54:11;;;;;;;16.98;3.72;;;19.20;99.90;;;;;;4951415;29;20050;-88
2023/08/13 04:56:37;;;;;;;17.45;3.38;;;19.10;99.90;;;;;;4951155;29;20039;-88
2023/08/13 04:59:03;;;;;;;20.67;3.53;;;19.20;99.90;;;;;;4952249;29;20476;-89
2023/08/13 05:01:28;;;;;;;20.63;3.72;;;19.10;99.90;;;;;;4951746;28;20039;-88
2023/08/13 05:03:54;;;;;;;14.93;3.17;;;19.20;99.90;;;;;;4950028;29;20024;-88
2023/08/13 05:06:20;;;;;;;16.27;3.38;;;19.20;99.90;;;;;;4949476;29;20031;-88
2023/08/13 05:08:45;;;;;;;14.57;3.13;;;19.20;99.90;;;;;;4951087;29;20028;-89
2023/08/13 05:11:11;;;;;;;14.60;3.13;;;19.10;99.90;;;;;;4949788;29;20035;-88
2023/08/13 05:13:37;;;;;;;20.15;3.65;;;19.10;99.90;;;;;;4949816;28;20043;-89
2023/08/13 05:16:03;;;;;;;13.85;3.40;;;19.10;99.90;;;;;;4951574;29;20033;-88
2023/08/13 05:18:29;;;;;;;15.75;2.92;;;19.10;99.90;;;;;;4951607;29;20432;-88
2023/08/13 05:20:55;;;;;;;16.20;3.20;;;;;;;;;;4950837;29;20046;-88
2023/08/13 05:23:20;;;;;;;13.75;3.15;;;19.20;99.90;;;;;;4950461;28;20531;-88
2023/08/13 05:25:46;;;;;;;23.00;3.58;;;19.20;99.90;;;;;;4950721;28;20106;-88
2023/08/13 05:28:12;;;;;;;18.70;4.10;;;;;;;;;;4949719;29;20039;-88
2023/08/13 05:30:38;;;;;;;24.45;3.88;;;19.20;99.90;;;;;;4949507;29;20114;-88
2023/08/13 05:33:04;;;;;;;18.65;3.00;;;;;;;;;;4951322;28;20046;-88
2023/08/13 05:35:30;;;;;;;12.75;2.67;;;19.00;99.90;;;;;;4951504;28;20038;-88
2023/08/13 05:37:56;;;;;;;14.32;2.50;;;;;;;;;;4950621;28;20031;-88
2023/08/13 05:40:22;;;;;;;15.63;2.60;;;19.00;99.90;;;;;;4949298;29;20046;-87
2023/08/13 05:42:48;;;;;;;17.60;2.60;;;;;;;;;;4950610;28;20411;-90
2023/08/13 05:45:14;;;;;;;13.38;2.70;;;;;;;;;;4951212;28;20027;-91
2023/08/13 05:47:41;;;;;;;9.48;2.38;;;19.10;99.90;;;;;;4951066;28;20028;-89
2023/08/13 05:50:07;;;;;;;15.73;2.80;;;19.20;99.90;;;;;;4950908;29;20023;-89
2023/08/13 05:52:33;;;;;;;11.77;2.30;;;19.20;99.90;;;;;;4950145;29;20035;-88
2023/08/13 05:54:58;;;;;;;14.02;2.35;;;19.20;99.90;;;;;;4951730;29;20407;-89
2023/08/13 05:57:24;;;;;;;12.45;2.50;;;22.30;99.90;;;;;;4950360;29;20035;-88
2023/08/13 05:59:49;;;;;;;12.00;2.22;;;19.30;99.90;;;;;;4951487;28;20027;-88
2023/08/13 06:02:15;;;;;;;10.55;2.33;;;19.30;99.90;;;;;;4954540;29;20106;-91
2023/08/13 06:04:41;;;;;;;8.10;2.28;;;;;;;;;;4954114;29;20027;-94
2023/08/13 06:07:08;;;;;;;9.57;2.45;;;;;;;;;;4951408;28;20501;-89
2023/08/13 06:09:34;;;;;;;13.20;2.47;;;;;;;;;;4939093;28;20559;-91
2023/08/13 06:12:00;;;;;;;8.57;2.60;;;19.40;99.90;;;;;;4941582;28;20054;-89
2023/08/13 06:14:26;;;;;;;15.65;2.20;;;23.00;99.90;;;;;;4944955;28;20035;-90
2023/08/13 06:16:52;;;;;;;16.02;2.38;;;;;;;;;;4952472;29;20035;-92
2023/08/13 06:19:18;;;;;;;11.75;2.47;;;19.50;99.90;;;;;;4953444;28;20488;-91
2023/08/13 06:21:44;;;;;;;11.00;2.55;;;19.50;99.90;;;;;;4938028;28;20031;-87
2023/08/13 06:24:10;;;;;;;13.68;3.15;;;;;;;;;;4936195;28;20489;-90
2023/08/13 06:26:37;;;;;;;8.05;2.00;;;19.60;99.90;;;;;;4937943;28;20023;-90
2023/08/13 06:29:03;;;;;;;12.20;2.40;;;19.60;99.90;;;;;;4936014;28;20122;-88
2023/08/13 06:31:28;;;;;;;6.72;1.85;;;19.60;99.90;;;;;;4935123;28;20125;-88
2023/08/13 06:33:54;;;;;;;10.23;2.15;;;19.60;99.90;;;;;;4935288;28;20042;-87
2023/08/13 06:36:20;;;;;;;6.90;1.92;;;19.60;99.90;;;;;;4935451;28;20035;-87
2023/08/13 06:38:46;;;;;;;9.32;2.00;;;19.60;99.90;;;;;;4935164;28;20024;-89
2023/08/13 06:41:11;;;;;;;5.22;2.10;;;19.70;99.90;;;;;;4934966;28;20419;-88
2023/08/13 06:43:37;;;;;;;9.70;2.03;;;19.70;99.90;;;;;;4944731;28;20480;-89
2023/08/13 06:46:03;;;;;;;10.38;2.30;;;18.50;99.90;;;;;;4936593;28;20084;-90
2023/08/13 06:48:34;;;;;;;9.40;1.98;;;20.60;99.90;;;;;;4936422;28;20550;-86
2023/08/13 06:51:00;;;;;;;12.57;2.47;;;19.90;99.90;;;;;;4933375;28;20032;-88
2023/08/13 06:53:26;;;;;;;8.35;2.28;;;20.00;99.90;;;;;;4933716;28;20053;-87
2023/08/13 06:55:52;;;;;;;16.73;3.28;;;22.20;99.90;;;;;;4933781;28;20777;-87
2023/08/13 06:58:18;;;;;;;18.45;3.15;;;;;;;;;;4933817;28;20530;-89
2023/08/13 07:00:44;;;;;;;11.70;2.65;;;;;;;;;;4933969;28;20027;-88
2023/08/13 07:03:11;;;;;;;13.05;3.03;;;19.90;99.90;;;;;;4933713;28;20039;-86
2023/08/13 07:05:39;;;;;;;16.55;3.03;;;20.00;99.90;;;;;;4947896;28;20082;-88
2023/08/13 07:08:06;;;;;;;10.95;3.08;;;19.90;99.90;;;;;;4948082;28;20053;-87
2023/08/13 07:10:32;;;;;;;12.07;3.08;;;19.50;99.90;;;;;;4946136;28;20083;-88
2023/08/13 07:12:58;;;;;;;14.88;2.88;;;19.90;99.90;;;;;;4942468;28;20039;-88
2023/08/13 07:15:23;;;;;;;17.70;3.28;;;20.00;99.90;;;;;;4950866;28;20090;-87
2023/08/13 07:17:49;;;;;;;21.10;3.70;;;;;;;;;;4942276;28;20046;-88
2023/08/13 07:20:15;;;;;;;19.98;3.80;;;20.10;99.90;;;;;;4946342;28;20069;-89
2023/08/13 07:22:43;;;;;;;13.35;3.35;;;20.20;99.90;;;;;;4938856;28;20055;-89
2023/08/13 07:25:11;;;;;;;13.32;3.10;;;20.30;99.90;;;;;;4950336;28;20035;-87
2023/08/13 07:27:37;;;;;;;17.20;3.22;;;20.30;99.90;;;;;;4945883;28;20404;-88
2023/08/13 07:30:12;;;;;;;16.08;2.97;;;20.20;99.90;;;;;;4939337;28;20384;-92
2023/08/13 07:32:43;;;;;;;19.23;3.53;;;20.30;99.90;;;;;;4954547;28;20657;-88
2023/08/13 07:35:12;;;;;;;13.75;3.10;;;20.30;99.90;;;;;;4937869;28;20090;-87
2023/08/13 07:37:39;;;;;;;15.57;3.47;;;20.50;99.90;;;;;;4950350;28;20067;-92
2023/08/13 07:40:08;;;;;;;13.13;2.80;;;20.50;99.90;;;;;;4947058;28;20023;-88
2023/08/13 07:42:34;;;;;;;13.23;3.17;;;;;;;;;;4953093;29;20380;-90
2023/08/13 07:45:00;;;;;;;10.88;2.50;;;22.30;99.90;;;;;;4945001;28;20470;-90
2023/08/13 07:47:26;;;;;;;11.82;2.50;;;;;;;;;;4942411;28;20043;-88
2023/08/13 07:49:52;;;;;;;15.13;2.92;;;20.80;99.90;;;;;;4951856;29;20067;-88
2023/08/13 07:52:18;;;;;;;15.40;2.63;;;21.00;99.90;;;;;;4952674;28;20073;-88
2023/08/13 07:54:44;;;;;;;12.55;2.65;;;20.90;99.90;;;;;;4952049;28;20394;-87
2023/08/13 07:57:09;;;;;;;15.98;2.63;;;20.90;99.90;;;;;;4953176;28;20027;-88
2023/08/13 07:59:35;;;;;;;9.00;2.30;;;20.80;99.90;;;;;;4952748;29;20065;-88
2023/08/13 08:02:03;;;;;;;15.90;2.55;;;20.80;99.90;;;;;;4951859;29;20414;-88
2023/08/13 08:04:28;;;;;;;;;;;21.10;99.90;;;;;;4968025;28;20114;-89
2023/08/13 08:06:54;;;;;;;12.52;2.53;;;;;;;;;;4951523;29;20339;-87
2023/08/13 08:09:20;;;;;;;12.77;2.35;;;;;;;;;;4953045;28;20046;-88
2023/08/13 08:11:47;;;;;;;11.90;2.30;;;20.80;99.90;;;;;;4950567;29;20047;-87
2023/08/13 08:14:13;;;;;;;11.38;2.38;;;;;;;;;;4947978;29;20023;-89
2023/08/13 08:16:39;;;;;;;9.88;2.22;;;;;;;;;;4939975;29;20038;-89
2023/08/13 08:19:05;;;;;;;11.23;2.97;;;21.00;99.90;;;;;;4949418;29;20079;-88
2023/08/13 08:21:31;;;;;;;12.20;2.58;;;21.10;99.90;;;;;;4949124;28;20110;-88
2023/08/13 08:23:57;;;;;;;12.77;2.95;;;21.20;99.90;;;;;;4934167;29;20397;-87
2023/08/13 08:26:23;;;;;;;9.68;2.30;;;;;;;;;;4936605;29;20031;-90
2023/08/13 08:28:49;;;;;;;9.20;1.85;;;21.50;99.90;;;;;;4944414;29;20042;-90
2023/08/13 08:31:15;;;;;;;12.48;2.03;;;;;;;;;;4954050;28;20118;-91
2023/08/13 08:33:41;;;;;;;9.65;2.13;;;;;;;;;;4952316;29;20039;-88
2023/08/13 08:36:07;;;;;;;8.15;2.40;;;;;;;;;;4955456;28;20032;-94
2023/08/13 08:38:33;;;;;;;11.45;2.42;;;;;;;;;;4953887;28;20074;-89
2023/08/13 08:40:59;;;;;;;15.23;2.47;;;;;;;;;;4947748;28;20037;-92
2023/08/13 08:43:33;;;;;;;11.82;2.88;;;21.70;99.90;;;;;;4932941;29;20051;-88
2023/08/13 08:45:59;;;;;;;11.10;2.22;;;21.60;99.90;;;;;;4937966;29;20546;-88
2023/08/13 08:48:29;;;;;;;8.02;1.98;;;21.80;99.90;;;;;;4942281;29;20551;-88
2023/08/13 08:50:56;;;;;;;9.00;2.03;;;21.80;99.90;;;;;;4951236;29;20023;-87
2023/08/13 08:53:22;;;;;;;7.38;2.10;;;21.70;99.90;;;;;;4951596;28;20031;-90
2023/08/13 08:55:52;;;;;;;7.65;1.67;;;21.80;99.90;;;;;;4936539;28;20078;-92
2023/08/13 08:58:18;;;;;;;9.52;1.90;;;;;;;;;;4944085;28;20027;-88
2023/08/13 09:00:44;;;;;;;5.13;1.73;;;;;;;;;;4951984;28;20110;-90
2023/08/13 09:03:11;;;;;;;9.73;1.70;;;;;;;;;;4952509;28;20046;-91
2023/08/13 09:05:38;;;;;;;9.75;2.45;;;;;;;;;;4948221;28;20035;-92
2023/08/13 09:08:13;;;;;;;10.10;2.30;;;21.70;99.90;;;;;;4951724;28;20511;-89
2023/08/13 09:10:43;;;;;;;9.40;1.88;;;21.70;99.90;;;;;;4949593;28;20031;-90
2023/08/13 09:13:10;;;;;;;9.95;2.10;;;;;;;;;;4964128;28;20411;-89
2023/08/13 09:15:53;;;;;;;8.27;2.35;;;21.70;99.90;;;;;;4955770;28;20031;-93
2023/08/13 09:18:19;;;;;;;10.23;2.25;;;;;;;;;;4947548;28;20028;-89
2023/08/13 09:20:48;;;;;;;10.25;2.55;;;21.90;99.90;;;;;;4948706;28;20038;-91
2023/08/13 09:23:23;;;;;;;8.20;2.67;;;22.10;99.90;;;;;;4948269;28;20428;-92
2023/08/13 09:26:00;;;;;;;5.47;1.67;;;22.00;99.90;;;;;;4948697;28;20060;-91
2023/08/13 09:28:26;;;;;;;9.18;2.10;;;;;;;;;;4952406;28;20031;-92
2023/08/13 09:30:52;;;;;;;10.55;2.05;;;;;;;;;;4947831;29;20039;-89
2023/08/13 09:33:18;;;;;;;6.32;1.85;;;22.00;99.90;;;;;;4934990;28;20171;-90
2023/08/13 09:35:44;;;;;;;76.35;44.80;;;22.20;99.90;;;;;;4949884;28;20110;-89
2023/08/13 09:38:11;;;;;;;13.05;3.92;;;;;;;;;;4952518;28;20507;-94
2023/08/13 09:40:37;;;;;;;9.45;2.17;;;;;;;;;;4949516;28;20659;-91
2023/08/13 09:43:06;;;;;;;7.65;1.83;;;22.40;99.90;;;;;;4947244;28;20550;-89
2023/08/13 09:45:33;;;;;;;8.25;2.25;;;22.40;99.90;;;;;;4966168;28;20034;-89
2023/08/13 09:48:03;;;;;;;6.90;1.88;;;22.40;99.90;;;;;;4947190;28;20111;-90
2023/08/13 09:50:37;;;;;;;5.43;1.52;;;22.50;99.90;;;;;;4953482;28;20031;-90
2023/08/13 09:53:08;;;;;;;2.83;1.35;;;22.70;99.90;;;;;;4950714;28;20042;-90
2023/08/13 09:55:39;;;;;;;5.80;1.80;;;22.60;99.90;;;;;;4966840;28;20100;-91
2023/08/13 09:58:07;;;;;;;4.60;1.60;;;22.60;99.90;;;;;;4958980;28;20141;-89
2023/08/13 10:00:33;;;;;;;7.78;2.72;;;;;;;;;;4950042;28;20041;-89
2023/08/13 10:03:01;;;;;;;9.10;4.05;;;22.70;99.90;;;;;;4950139;28;20078;-89
2023/08/13 10:05:31;;;;;;;12.18;5.43;;;22.60;99.90;;;;;;4947664;28;20035;-93
2023/08/13 10:07:57;;;;;;;18.23;11.00;;;;;;;;;;4966311;28;20039;-90
2023/08/13 10:10:24;;;;;;;7.15;2.63;;;22.60;99.90;;;;;;4957939;28;20035;-89
2023/08/13 10:12:50;;;;;;;6.20;2.30;;;;;;;;;;4956071;28;20109;-90
2023/08/13 10:15:17;;;;;;;7.82;2.10;;;;;;;;;;4958393;28;20038;-89
2023/08/13 10:17:44;;;;;;;6.40;2.55;;;22.50;99.90;;;;;;4952649;28;20062;-87
2023/08/13 10:20:10;;;;;;;3.80;1.80;;;22.50;99.90;;;;;;4949977;28;20487;-88
2023/08/13 10:22:40;;;;;;;4.25;1.35;;;22.50;99.90;;;;;;4952072;28;20086;-91
2023/08/13 10:25:07;;;;;;;2.70;0.98;;;22.50;99.90;;;;;;4947968;29;20035;-88
2023/08/13 10:27:42;;;;;;;4.65;1.83;;;21.20;99.90;;;;;;4935626;29;20084;-89
2023/08/13 10:30:12;;;;;;;3.40;1.10;;;22.40;99.90;;;;;;4930739;29;20032;-88
2023/08/13 10:32:56;;;;;;;4.50;1.50;;;22.30;99.90;;;;;;4930550;29;20126;-90
2023/08/13 10:35:28;;;;;;;4.03;1.20;;;22.30;99.90;;;;;;4931850;29;20547;-92
2023/08/13 10:37:59;;;;;;;4.68;1.40;;;22.40;99.90;;;;;;4947938;29;20122;-89
2023/08/13 10:40:25;;;;;;;6.45;1.60;;;;;;;;;;4945687;28;20103;-88
2023/08/13 10:42:52;;;;;;;5.88;1.30;;;22.70;99.90;;;;;;4951713;28;20075;-89
2023/08/13 10:45:20;;;;;;;7.50;2.80;;;22.80;99.90;;;;;;4951352;28;20023;-92
2023/08/13 10:47:48;;;;;;;4.75;2.72;;;22.70;99.90;;;;;;4955456;28;20355;-91
2023/08/13 10:50:37;;;;;;;6.05;1.50;;;22.40;99.90;;;;;;4955044;28;20098;-92
2023/08/13 10:53:03;;;;;;;3.78;1.25;;;;;;;;;;4953567;28;20043;-89
2023/08/13 10:55:30;;;;;;;4.30;1.85;;;22.50;99.90;;;;;;4952725;28;20031;-89
2023/08/13 10:57:56;;;;;;;6.55;1.95;;;22.50;99.90;;;;;;4954058;28;20081;-89
2023/08/13 11:00:24;;;;;;;3.83;1.23;;;22.50;99.90;;;;;;4952879;29;20439;-89
2023/08/13 11:02:52;;;;;;;4.22;0.98;;;22.40;99.90;;;;;;4954156;28;20038;-88
2023/08/13 11:05:19;;;;;;;4.55;1.20;;;22.40;99.90;;;;;;4954823;28;20030;-88
2023/08/13 11:07:45;;;;;;;5.07;1.30;;;22.40;99.90;;;;;;4955148;28;20384;-89
2023/08/13 11:10:17;;;;;;;4.97;1.67;;;22.50;99.90;;;;;;4952712;29;20063;-90
2023/08/13 11:12:47;;;;;;;7.80;4.00;;;22.70;99.90;;;;;;4954307;28;20043;-91
2023/08/13 11:15:13;;;;;;;6.90;2.30;;;;;;;;;;4952720;28;20039;-89
2023/08/13 11:17:40;;;;;;;4.65;1.95;;;22.70;99.90;;;;;;4953107;28;20050;-92
2023/08/13 11:20:09;;;;;;;4.97;1.42;;;22.70;99.90;;;;;;4954044;28;20114;-90
2023/08/13 11:22:35;;;;;;;3.50;1.40;;;;;;;;;;4952434;28;20058;-90
2023/08/13 11:25:01;;;;;;;3.15;1.20;;;22.60;99.90;;;;;;4954340;28;20027;-89
2023/08/13 11:27:29;;;;;;;4.00;1.20;;;22.60;99.90;;;;;;4952805;29;20476;-90
2023/08/13 11:29:56;;;;;;;3.25;1.40;;;;;;;;;;4953308;28;20032;-88
2023/08/13 11:32:23;;;;;;;1.60;1.00;;;22.90;99.90;;;;;;4953583;28;20046;-90
2023/08/13 11:34:49;;;;;;;2.55;0.90;;;22.90;99.90;;;;;;4954388;28;20027;-90
2023/08/13 11:37:15;;;;;;;5.53;1.33;;;22.90;99.90;;;;;;4954778;28;20055;-88
2023/08/13 11:39:40;;;;;;;3.63;1.52;;;22.90;99.90;;;;;;4953639;28;20059;-94
2023/08/13 11:42:09;;;;;;;5.30;1.10;;;23.10;99.90;;;;;;4952541;29;20031;-88
2023/08/13 11:44:35;;;;;;;3.55;1.08;;;23.10;99.90;;;;;;4953126;28;20027;-92
2023/08/13 11:47:04;;;;;;;4.00;1.25;;;;;;;;;;4953624;29;20035;-89
2023/08/13 11:49:31;;;;;;;5.10;1.20;;;23.10;99.90;;;;;;4954176;29;20031;-92
2023/08/13 11:51:58;;;;;;;3.15;1.20;;;23.20;99.90;;;;;;4953509;29;20043;-92
2023/08/13 11:54:24;;;;;;;4.35;1.10;;;23.20;99.90;;;;;;4954696;28;20031;-88
2023/08/13 11:56:50;;;;;;;4.32;1.10;;;23.20;99.90;;;;;;4969043;28;20133;-89
2023/08/13 11:59:26;;;;;;;2.58;0.95;;;23.20;99.90;;;;;;4954338;29;20030;-93
2023/08/13 12:01:56;;;;;;;4.68;1.40;;;23.40;99.90;;;;;;4953459;29;20027;-92
2023/08/13 12:04:23;;;;;;;2.10;0.90;;;23.40;99.90;;;;;;4944817;28;20027;-88
2023/08/13 12:06:51;;;;;;;5.18;1.20;;;23.70;99.90;;;;;;4944432;29;20023;-91
2023/08/13 12:09:21;;;;;;;6.72;1.33;;;23.50;99.90;;;;;;4957242;28;20109;-89
2023/08/13 12:11:47;;;;;;;3.10;1.55;;;;;;;;;;4954542;28;20039;-87
2023/08/13 12:14:12;;;;;;;4.90;1.20;;;23.70;99.90;;;;;;4955710;28;20038;-89
2023/08/13 12:16:38;;;;;;;4.53;1.50;;;23.70;99.90;;;;;;4951813;29;20031;-88
2023/08/13 12:19:08;;;;;;;4.35;1.20;;;23.90;99.90;;;;;;4966263;29;20027;-87
2023/08/13 12:21:35;;;;;;;3.78;1.20;;;24.00;99.90;;;;;;4956830;29;20496;-87
2023/08/13 12:24:03;;;;;;;3.80;1.50;;;24.00;99.90;;;;;;4952211;28;20576;-87
2023/08/13 12:26:29;;;;;;;6.68;1.05;;;23.90;99.90;;;;;;4944067;29;20043;-87
2023/08/13 12:28:55;;;;;;;6.18;1.77;;;23.90;99.90;;;;;;4954062;28;20090;-88
2023/08/13 12:31:22;;;;;;;5.28;1.05;;;23.80;99.90;;;;;;4955974;28;20034;-89
2023/08/13 12:33:48;;;;;;;4.40;1.38;;;23.80;99.90;;;;;;4938727;28;20036;-88
2023/08/13 12:36:14;;;;;;;3.30;1.13;;;23.80;99.90;;;;;;4942287;29;20050;-92
2023/08/13 12:38:40;;;;;;;3.35;1.23;;;23.60;99.90;;;;;;4953094;28;20415;-89
2023/08/13 12:41:07;;;;;;;7.32;1.13;;;23.50;99.90;;;;;;4954902;28;20046;-87
2023/08/13 12:43:35;;;;;;;6.20;1.42;;;23.60;99.90;;;;;;4953342;29;20090;-89
2023/08/13 12:46:02;;;;;;;5.80;1.35;;;23.50;99.90;;;;;;4953992;29;20020;-88
2023/08/13 12:48:27;;;;;;;3.63;1.20;;;23.80;99.90;;;;;;4951600;28;20062;-86
2023/08/13 12:50:53;;;;;;;3.15;0.80;;;24.00;99.90;;;;;;4953498;28;20027;-87
2023/08/13 12:53:20;;;;;;;3.70;1.20;;;24.00;99.90;;;;;;4954859;28;20039;-87
2023/08/13 12:55:46;;;;;;;5.23;1.30;;;;;;;;;;4958386;28;20027;-87
2023/08/13 12:58:12;;;;;;;4.70;1.15;;;24.00;99.90;;;;;;4956646;28;20633;-88
2023/08/13 13:00:37;;;;;;;4.90;1.40;;;24.20;99.90;;;;;;4951841;29;20051;-88
2023/08/13 13:03:04;;;;;;;5.40;1.20;;;24.20;99.90;;;;;;4951073;28;20141;-87
2023/08/13 13:05:30;;;;;;;3.25;1.02;;;;;;;;;;4954827;29;20027;-90
2023/08/13 13:07:55;;;;;;;3.15;1.02;;;24.30;99.90;;;;;;4952915;28;20081;-90
2023/08/13 13:10:21;;;;;;;4.45;1.10;;;24.40;99.90;;;;;;4954113;28;20031;-88